Accueil
METAR-TAF:

METAR-TAF

Aéroports :

Aéroport international de Chuuk

Weno, Micronésie

latitude: 07-28N, longitude: 151-51E, altitude: 3 m

Observation

Le bulletin a été fait il y a 8 minutes, à 09:50 UTC
Vent 9 kt de nord-est
Température 28°C
Humidité 89%
Pression 1009 hPa
Visibilité: 24.1 km
Quelques nuages à une hauteur de 1400 ft
Nuages épars à une hauteur de 12000 ft
Ciel couvert à une hauteur de 28000 ft

METAR: PTKK 270950Z 04009KT 15SM FEW014 SCT120 OVC280 28/26 A2981 RMK SLP096 T02790264

Heure: 19:58 (09:58 UTC)

Prévision

Le bulletin a été fait il y a 3 heures et 24 minutes, à 06:34 UTC
Prévision valable du 27 à 07 UTC au 28 à 06 UTC
Vent 13 kt de nord-est
Visibilité: 10 km
Nuages épars à une hauteur de 1800 ft
Nuages épars à une hauteur de 5000 ft
averses à proximité

TAF: PTKK 270634Z 2707/2806 04013KT P6SM VCSH SCT018 SCT050

Observations et prévisions météorologiques de plus de 4000 aéroports (messages METAR et TAF).

Les stations disponibles sont représentées par des disques jaunes et rouges sur la carte.

Passer la souris dessus pour voir le nom de la station.

Cliquer dessus pour voir les observations et prévisions météorologiques.

Pour changer de carte: cliquez sur les boutons verts avec une croix noire pour zoomer, sur le bouton vert avec un tiret pour effectuer un zoom arrière, ou sur les flèches vertes pour les cartes adjacentes.


METAR-TAF: